Time;durP1;ratioP1;P1;durP2;ratioP2;P2;SDS_P1;SDS_P2;PMS_P1;PMS_P2;Temp;Humidity;BMP_temperature;BMP_pressure;BME280_temperature;BME280_humidity;BME280_pressure;Samples;Min_cycle;Max_cycle;Signal;HPM_P1;HPM_P2
2022/12/01 00:00:46;;;;;;;47.20;20.02;;;;;;;;;;6180911;23;20128;-59
2022/12/01 00:03:20;;;;;;;48.25;21.13;;;;;;;;;;6179648;23;20017;-60
2022/12/01 00:05:48;;;;;;;49.50;20.27;;;;;;;;;;6179557;23;20489;-63
2022/12/01 00:08:21;;;;;;;48.05;21.77;;;;;;;;;;6179977;23;20029;-64
2022/12/01 00:10:48;;;;;;;54.85;22.08;;;;;;;;;;6153599;23;20060;-63
2022/12/01 00:13:15;;;;;;;49.67;20.67;;;;;;;;;;6179333;23;20025;-63
2022/12/01 00:15:49;;;;;;;46.88;21.75;;;;;;;;;;6178703;23;20021;-63
2022/12/01 00:18:23;;;;;;;52.13;20.98;;;;;;;;;;6174458;23;20522;-63
2022/12/01 00:20:56;;;;;;;46.25;20.88;;;;;;;;;;6179172;23;20048;-63
2022/12/01 00:23:23;;;;;;;54.35;22.83;;;;;;;;;;6179999;23;20103;-63
2022/12/01 00:25:50;;;;;;;57.25;21.15;;;;;;;;;;6179105;23;20024;-63
2022/12/01 00:28:24;;;;;;;51.67;21.63;;;;;;;;;;6177538;23;20096;-62
2022/12/01 00:30:51;;;;;;;52.15;20.83;;;;;;;;;;6178912;23;20115;-63
2022/12/01 00:33:25;;;;;;;57.22;22.33;;;;;;;;;;6178647;23;20035;-62
2022/12/01 00:35:59;;;;;;;55.60;22.70;;;;;;;;;;6179359;23;20565;-63
2022/12/01 00:38:34;;;;;;;49.45;21.15;;;;;;;;;;6177528;23;20029;-63
2022/12/01 00:41:01;;;;;;;;;;;;;;;;;;6178889;23;20096;-63
2022/12/01 00:43:28;;;;;;;59.13;21.92;;;;;;;;;;6177847;23;19928;-59
2022/12/01 00:46:02;;;;;;;50.80;21.40;;;;;;;;;;6178793;23;20506;-47
2022/12/01 00:48:29;;;;;;;50.50;21.90;;;;;;;;;;6178213;23;20041;-46
2022/12/01 00:51:03;;;;;;;56.30;22.17;;;;;;;;;;6178943;23;20060;-46
2022/12/01 00:53:30;;;;;;;57.03;22.20;;;;;;;;;;6178834;23;20021;-47
2022/12/01 00:55:58;;;;;;;51.42;21.23;;;;;;;;;;6178320;23;20080;-52
2022/12/01 00:58:31;;;;;;;47.72;22.20;;;;;;;;;;6178256;23;20524;-47
2022/12/01 01:00:59;;;;;;;54.15;23.13;;;;;;;;;;6180515;23;20031;-63
2022/12/01 01:03:33;;;;;;;50.00;20.70;;;;;;;;;;6178913;23;20028;-57
2022/12/01 01:06:04;;;;;;;55.70;21.88;;;;;;;;;;6179544;23;20096;-50
2022/12/01 01:08:32;;;;;;;55.42;22.00;;;;;;;;;;6177781;23;20089;-49
2022/12/01 01:11:05;;;;;;;55.83;22.35;;;;;;;;;;6178669;23;20475;-51
2022/12/01 01:13:32;;;;;;;;;;;;;;;;;;6177877;23;20096;-50
2022/12/01 01:16:08;;;;;;;51.33;20.65;;;;;;;;;;6179103;23;19919;-55
2022/12/01 01:18:41;;;;;;;50.03;20.33;;;;;;;;;;6177397;23;20109;-52
2022/12/01 01:21:16;;;;;;;51.10;21.08;;;;;;;;;;6177941;23;20021;-57
2022/12/01 01:23:43;;;;;;;51.25;21.55;;;;;;;;;;6177849;23;20363;-63
2022/12/01 01:26:12;;;;;;;56.28;22.20;;;;;;;;;;6178988;23;20097;-64
2022/12/01 01:28:47;;;;;;;48.90;21.23;;;;;;;;;;6178059;23;20075;-65
2022/12/01 01:31:16;;;;;;;50.00;21.77;;;;;;;;;;6179612;23;20063;-65
2022/12/01 01:33:43;;;;;;;49.60;21.40;;;;;;;;;;6179359;23;20108;-63
2022/12/01 01:36:19;;;;;;;54.85;21.13;;;;;;;;;;6180031;23;20025;-65
2022/12/01 01:38:47;;;;;;;51.95;22.48;;;;;;;;;;6178180;23;20036;-55
2022/12/01 01:41:21;;;;;;;52.17;21.80;;;;;;;;;;6178455;23;20017;-63
2022/12/01 01:43:50;;;;;;;53.92;20.80;;;;;;;;;;6152155;23;20057;-60
2022/12/01 01:46:18;;;;;;;55.80;22.40;;;;;;;;;;6178945;23;20463;-60
2022/12/01 01:48:58;;;;;;;51.10;20.65;;;;;;;;;;6178657;23;20103;-61
2022/12/01 01:51:29;;;;;;;46.65;19.75;;;;;;;;;;6178230;23;20020;-61
2022/12/01 01:54:06;;;;;;;38.13;16.70;;;;;;;;;;6178375;23;20502;-60
2022/12/01 01:56:35;;;;;;;54.50;20.60;;;;;;;;;;6177667;23;20256;-61
2022/12/01 01:59:03;;;;;;;51.20;20.33;;;;;;;;;;6178869;23;20031;-65
2022/12/01 02:01:37;;;;;;;47.95;19.30;;;;;;;;;;6178859;23;20120;-63
2022/12/01 02:04:05;;;;;;;53.17;21.67;;;;;;;;;;6179483;23;20021;-63
2022/12/01 02:06:38;;;;;;;49.42;21.20;;;;;;;;;;6179687;23;20358;-63
2022/12/01 02:09:05;;;;;;;48.95;20.25;;;;;;;;;;6178015;23;20133;-63
2022/12/01 02:11:47;;;;;;;50.58;20.40;;;;;;;;;;6152348;23;20104;-63
2022/12/01 02:14:39;;;;;;;47.03;20.45;;;;;;;;;;6178609;23;20025;-63
2022/12/01 02:17:09;;;;;;;54.80;22.13;;;;;;;;;;6178115;23;20021;-62
2022/12/01 02:20:09;;;;;;;45.75;20.90;;;;;;;;;;6177187;23;20025;-54
2022/12/01 02:22:55;;;;;;;50.08;20.27;;;;;;;;;;6177295;23;20031;-60
2022/12/01 02:25:48;;;;;;;49.22;21.08;;;;;;;;;;6178152;23;20021;-60
2022/12/01 02:28:30;;;;;;;49.60;22.02;;;;;;;;;;6178327;23;20500;-60
2022/12/01 02:31:19;;;;;;;49.40;20.73;;;;;;;;;;6177956;23;20025;-60
2022/12/01 02:33:53;;;;;;;47.05;20.63;;;;;;;;;;6180528;23;20072;-61
2022/12/01 02:36:35;;;;;;;46.67;21.05;;;;;;;;;;6180365;23;20032;-47
2022/12/01 02:39:09;;;;;;;48.45;20.08;;;;;;;;;;6178900;23;20496;-57
2022/12/01 02:41:47;;;;;;;48.15;21.33;;;;;;;;;;6179804;23;20060;-60
2022/12/01 02:44:19;;;;;;;48.60;21.05;;;;;;;;;;6179274;23;20017;-61
2022/12/01 02:47:02;;;;;;;51.40;21.70;;;;;;;;;;6179283;23;20363;-60
2022/12/01 02:49:32;;;;;;;47.28;19.70;;;;;;;;;;6180492;23;20100;-60
2022/12/01 02:52:06;;;;;;;50.30;20.77;;;;;;;;;;6178975;23;20025;-60
2022/12/01 02:54:33;;;;;;;51.95;20.88;;;;;;;;;;6180252;23;20017;-61
2022/12/01 02:57:08;;;;;;;46.80;19.67;;;;;;;;;;6178920;23;20029;-59
2022/12/01 02:59:35;;;;;;;47.15;20.83;;;;;;;;;;6180310;23;20017;-59
2022/12/01 03:02:27;;;;;;;49.17;21.38;;;;;;;;;;6179750;23;20044;-59
2022/12/01 03:05:08;;;;;;;46.25;19.40;;;;;;;;;;6178862;23;20451;-59
2022/12/01 03:07:54;;;;;;;53.22;20.90;;;;;;;;;;6180426;23;20053;-59
2022/12/01 03:10:46;;;;;;;51.17;21.08;;;;;;;;;;6180161;23;20033;-59
2022/12/01 03:13:16;;;;;;;43.53;20.17;;;;;;;;;;6180017;23;20099;-60
2022/12/01 03:15:56;;;;;;;50.92;22.13;;;;;;;;;;6181083;23;20027;-55
2022/12/01 03:18:45;;;;;;;49.53;20.90;;;;;;;;;;6176688;23;20085;-52
2022/12/01 03:21:19;;;;;;;52.17;20.95;;;;;;;;;;6179623;23;20024;-53
2022/12/01 03:23:56;;;;;;;50.40;21.90;;;;;;;;;;6180170;23;20047;-53
2022/12/01 03:26:32;;;;;;;55.42;21.48;;;;;;;;;;6180302;23;20076;-50
2022/12/01 03:29:03;;;;;;;49.78;21.27;;;;;;;;;;6180127;23;20797;-51
2022/12/01 03:31:41;;;;;;;52.95;21.70;;;;;;;;;;6179473;23;20474;-51
2022/12/01 03:34:30;;;;;;;50.85;20.13;;;;;;;;;;6178912;23;20063;-55
2022/12/01 03:37:10;;;;;;;60.47;22.88;;;;;;;;;;6178113;23;20025;-60
2022/12/01 03:39:38;;;;;;;57.40;21.08;;;;;;;;;;6179672;23;20097;-59
2022/12/01 03:42:15;;;;;;;54.83;20.55;;;;;;;;;;6179324;23;20024;-59
2022/12/01 03:44:52;;;;;;;51.78;21.02;;;;;;;;;;6178968;23;20017;-60
2022/12/01 03:47:29;;;;;;;56.88;21.40;;;;;;;;;;6180089;23;20773;-60
2022/12/01 03:49:57;;;;;;;49.58;21.17;;;;;;;;;;6180480;23;20112;-60
2022/12/01 03:52:46;;;;;;;62.15;22.83;;;;;;;;;;6179763;23;20061;-61
2022/12/01 03:55:19;;;;;;;49.78;19.88;;;;;;;;;;6179018;23;20021;-47
2022/12/01 03:57:57;;;;;;;67.20;22.65;;;;;;;;;;6180441;23;20029;-64
2022/12/01 04:00:25;;;;;;;55.60;21.00;;;;;;;;;;6179367;23;20021;-64
2022/12/01 04:03:03;;;;;;;58.50;22.35;;;;;;;;;;6181298;23;20056;-65
2022/12/01 04:05:31;;;;;;;64.43;22.70;;;;;;;;;;6179673;23;20102;-65
2022/12/01 04:07:58;;;;;;;62.53;22.23;;;;;;;;;;6179549;23;20017;-65
2022/12/01 04:10:32;;;;;;;61.78;24.10;;;;;;;;;;6180265;23;20032;-65
2022/12/01 04:13:00;;;;;;;62.60;23.10;;;;;;;;;;6181527;23;20017;-63
2022/12/01 04:15:27;;;;;;;59.03;21.83;;;;;;;;;;6178194;23;20108;-63
2022/12/01 04:18:07;;;;;;;56.70;21.35;;;;;;;;;;6178591;23;20029;-63
2022/12/01 04:20:42;;;;;;;59.17;21.80;;;;;;;;;;6178847;23;20637;-63
2022/12/01 04:26:02;;;;;;;58.95;22.60;;;;;;;;;;6180816;23;20020;-63
2022/12/01 04:28:42;;;;;;;63.72;23.45;;;;;;;;;;6178849;23;20056;-63
2022/12/01 04:31:09;;;;;;;62.50;24.38;;;;;;;;;;6179637;23;20089;-53
2022/12/01 04:33:36;;;;;;;62.13;23.30;;;;;;;;;;6177960;23;20489;-56
2022/12/01 04:36:10;;;;;;;58.30;22.50;;;;;;;;;;6180702;23;20023;-58
2022/12/01 04:38:37;;;;;;;58.85;23.00;;;;;;;;;;6178953;23;20035;-55
2022/12/01 04:41:10;;;;;;;55.83;22.45;;;;;;;;;;6180408;23;20021;-55
2022/12/01 04:43:44;;;;;;;52.92;20.98;;;;;;;;;;6179447;23;20036;-57
2022/12/01 04:46:11;;;;;;;54.17;21.58;;;;;;;;;;6180070;23;20104;-56
2022/12/01 04:48:45;;;;;;;59.83;22.15;;;;;;;;;;6177259;23;20059;-54
2022/12/01 04:51:12;;;;;;;56.13;21.08;;;;;;;;;;6178888;23;20411;-55
2022/12/01 04:53:40;;;;;;;57.53;21.15;;;;;;;;;;6178737;23;20092;-55
2022/12/01 04:56:13;;;;;;;61.78;22.58;;;;;;;;;;6178137;23;20028;-52
2022/12/01 04:58:40;;;;;;;55.75;21.80;;;;;;;;;;6178840;23;20202;-56
2022/12/01 05:01:15;;;;;;;58.83;22.52;;;;;;;;;;6177802;23;20092;-57
2022/12/01 05:03:44;;;;;;;56.00;21.50;;;;;;;;;;6178777;23;20126;-56
2022/12/01 05:06:13;;;;;;;58.55;21.55;;;;;;;;;;6179893;23;20104;-54
2022/12/01 05:08:46;;;;;;;55.70;22.17;;;;;;;;;;6177750;23;20025;-51
2022/12/01 05:11:14;;;;;;;60.15;22.00;;;;;;;;;;6177344;23;20021;-57
2022/12/01 05:13:48;;;;;;;54.17;21.48;;;;;;;;;;6177227;23;20497;-48
2022/12/01 05:16:18;;;;;;;54.67;21.45;;;;;;;;;;6179655;23;20064;-47
2022/12/01 05:18:49;;;;;;;57.13;22.55;;;;;;;;;;6177258;23;20060;-46
2022/12/01 05:21:22;;;;;;;56.22;21.00;;;;;;;;;;6177984;23;20021;-45
2022/12/01 05:23:49;;;;;;;57.83;21.60;;;;;;;;;;6175825;23;20035;-47
2022/12/01 05:26:23;;;;;;;57.13;21.90;;;;;;;;;;6176678;23;20021;-50
2022/12/01 05:28:50;;;;;;;63.60;21.92;;;;;;;;;;6177850;23;20020;-60
2022/12/01 05:31:24;;;;;;;55.05;20.20;;;;;;;;;;6178990;23;20025;-53
2022/12/01 05:33:51;;;;;;;54.03;20.75;;;;;;;;;;6177615;23;20064;-51
2022/12/01 05:36:19;;;;;;;57.78;21.08;;;;;;;;;;6179293;23;20043;-52
2022/12/01 05:38:53;;;;;;;56.88;20.83;;;;;;;;;;6178698;23;20490;-50
2022/12/01 05:41:20;;;;;;;52.28;20.77;;;;;;;;;;6177586;23;20024;-51
2022/12/01 05:43:48;;;;;;;55.25;21.35;;;;;;;;;;6172296;23;20104;-53
2022/12/01 05:46:21;;;;;;;60.70;22.08;;;;;;;;;;6174291;23;20029;-59
2022/12/01 05:48:48;;;;;;;55.95;20.70;;;;;;;;;;6172956;23;20028;-62
2022/12/01 05:51:22;;;;;;;71.15;22.40;;;;;;;;;;6172997;23;20265;-57
2022/12/01 05:53:49;;;;;;;67.07;21.10;;;;;;;;;;6174487;23;20489;-57
2022/12/01 05:56:16;;;;;;;61.53;20.75;;;;;;;;;;6175852;23;20104;-58
2022/12/01 05:58:50;;;;;;;61.85;21.00;;;;;;;;;;6176561;23;20028;-54
2022/12/01 06:01:17;;;;;;;71.43;21.75;;;;;;;;;;6178249;23;20100;-56
2022/12/01 06:03:44;;;;;;;62.85;21.70;;;;;;;;;;6179002;23;20112;-55
2022/12/01 06:06:18;;;;;;;63.25;20.48;;;;;;;;;;6178991;23;20402;-65
2022/12/01 06:08:45;;;;;;;67.82;20.92;;;;;;;;;;6178991;23;20493;-57
2022/12/01 06:11:19;;;;;;;69.22;21.65;;;;;;;;;;6177738;23;20017;-56
2022/12/01 06:13:46;;;;;;;70.03;21.70;;;;;;;;;;6177352;23;20107;-58
2022/12/01 06:16:14;;;;;;;66.45;20.85;;;;;;;;;;6178653;23;20016;-55
2022/12/01 06:18:54;;;;;;;72.00;21.58;;;;;;;;;;6178117;23;20029;-58
2022/12/01 06:21:21;;;;;;;66.05;20.83;;;;;;;;;;6178669;23;20081;-54
2022/12/01 06:23:55;;;;;;;87.22;22.17;;;;;;;;;;6178020;23;20027;-57
2022/12/01 06:26:22;;;;;;;71.72;20.50;;;;;;;;;;6178825;23;20021;-62
2022/12/01 06:28:49;;;;;;;68.65;20.27;;;;;;;;;;6177430;23;20021;-62
2022/12/01 06:31:23;;;;;;;71.63;20.70;;;;;;;;;;6179643;23;20024;-61
2022/12/01 06:33:51;;;;;;;77.70;21.13;;;;;;;;;;6177575;23;20024;-63
2022/12/01 06:36:18;;;;;;;;;;;;;;;;;;6178889;23;20021;-62
2022/12/01 06:38:52;;;;;;;71.45;20.35;;;;;;;;;;6178666;23;19920;-63
2022/12/01 06:41:26;;;;;;;67.70;20.38;;;;;;;;;;6178362;23;20091;-63
2022/12/01 06:43:53;;;;;;;65.60;19.55;;;;;;;;;;6151796;23;20554;-60
2022/12/01 06:46:27;;;;;;;70.82;20.15;;;;;;;;;;6178586;23;20132;-53
2022/12/01 06:48:55;;;;;;;;;;;;;;;;;;6179036;23;20092;-48
2022/12/01 06:51:22;;;;;;;82.07;20.42;;;;;;;;;;6177586;23;19924;-48
2022/12/01 06:53:56;;;;;;;71.72;21.10;;;;;;;;;;6178061;23;20073;-47
2022/12/01 06:56:31;;;;;;;68.40;21.35;;;;;;;;;;6177470;23;20936;-45
2022/12/01 06:59:05;;;;;;;68.93;21.55;;;;;;;;;;6178179;23;20108;-49
2022/12/01 07:01:33;;;;;;;;;;;;;;;;;;6178670;23;20028;-47
2022/12/01 07:04:06;;;;;;;70.47;20.17;;;;;;;;;;6178469;23;19999;-49
2022/12/01 07:06:33;;;;;;;71.65;20.60;;;;;;;;;;6178477;23;20021;-64
2022/12/01 07:09:01;;;;;;;69.78;22.13;;;;;;;;;;6177954;23;20032;-65
2022/12/01 07:11:35;;;;;;;69.75;22.65;;;;;;;;;;6177553;23;20349;-64
2022/12/01 07:14:15;;;;;;;80.40;23.65;;;;;;;;;;6178412;23;20409;-65
2022/12/01 07:16:49;;;;;;;72.18;21.52;;;;;;;;;;6178422;23;20021;-64
2022/12/01 07:19:22;;;;;;;72.78;21.98;;;;;;;;;;6178682;23;20032;-64
2022/12/01 07:22:03;;;;;;;58.33;19.80;;;;;;;;;;6180590;23;20487;-55
2022/12/01 07:24:30;;;;;;;82.07;24.15;;;;;;;;;;6179003;23;20111;-62
2022/12/01 07:27:04;;;;;;;69.13;21.55;;;;;;;;;;6178556;23;20104;-62
2022/12/01 07:29:32;;;;;;;72.50;23.15;;;;;;;;;;6179880;23;20060;-63
2022/12/01 07:31:59;;;;;;;72.72;22.35;;;;;;;;;;6180273;23;20169;-63
2022/12/01 07:34:32;;;;;;;74.55;22.95;;;;;;;;;;6179276;23;20057;-62
2022/12/01 07:36:59;;;;;;;65.82;20.95;;;;;;;;;;6181619;23;20116;-62
2022/12/01 07:39:27;;;;;;;83.40;22.70;;;;;;;;;;6180005;23;20052;-62
2022/12/01 07:42:01;;;;;;;84.15;23.05;;;;;;;;;;6181586;23;20108;-64
2022/12/01 07:44:28;;;;;;;76.65;22.38;;;;;;;;;;6179572;23;20099;-59
2022/12/01 07:47:08;;;;;;;88.05;22.27;;;;;;;;;;6181343;23;20132;-56
2022/12/01 07:49:35;;;;;;;78.78;23.17;;;;;;;;;;6180067;23;20021;-57
2022/12/01 07:52:09;;;;;;;67.13;21.58;;;;;;;;;;6180672;23;20581;-57
2022/12/01 07:54:36;;;;;;;68.50;22.05;;;;;;;;;;6179226;23;20024;-58
2022/12/01 07:57:03;;;;;;;69.88;22.30;;;;;;;;;;6180491;23;20107;-58
2022/12/01 07:59:37;;;;;;;85.13;23.58;;;;;;;;;;6180089;23;20024;-51
2022/12/01 08:02:05;;;;;;;82.43;23.70;;;;;;;;;;6180856;23;20039;-62
2022/12/01 08:04:39;;;;;;;82.38;22.90;;;;;;;;;;6179458;23;20519;-53
2022/12/01 08:07:06;;;;;;;82.82;24.65;;;;;;;;;;6180572;23;20021;-58
2022/12/01 08:09:33;;;;;;;73.60;23.20;;;;;;;;;;6179888;23;20027;-57
2022/12/01 08:12:08;;;;;;;70.10;22.17;;;;;;;;;;6179616;23;20020;-56
2022/12/01 08:14:35;;;;;;;75.25;23.38;;;;;;;;;;6178693;23;20103;-56
2022/12/01 08:17:22;;;;;;;84.25;24.13;;;;;;;;;;6178108;23;20017;-57
2022/12/01 08:19:56;;;;;;;80.43;23.42;;;;;;;;;;6149296;23;20036;-62
2022/12/01 08:22:30;;;;;;;86.40;23.88;;;;;;;;;;6148813;23;20028;-58
2022/12/01 08:24:57;;;;;;;88.57;23.05;;;;;;;;;;6149631;23;20336;-58
2022/12/01 08:27:31;;;;;;;90.05;24.27;;;;;;;;;;6149612;23;20018;-59
2022/12/01 08:29:58;;;;;;;71.68;23.38;;;;;;;;;;6148858;23;20022;-59
2022/12/01 08:32:26;;;;;;;74.75;22.75;;;;;;;;;;6122720;23;20018;-57
2022/12/01 08:34:59;;;;;;;90.00;22.85;;;;;;;;;;6149683;23;20026;-59
2022/12/01 08:37:26;;;;;;;81.25;23.70;;;;;;;;;;6149674;23;20128;-58
2022/12/01 08:39:54;;;;;;;82.40;23.25;;;;;;;;;;6149447;23;20021;-65
2022/12/01 08:42:27;;;;;;;78.18;22.65;;;;;;;;;;6149561;23;20063;-58
2022/12/01 08:44:54;;;;;;;80.10;23.70;;;;;;;;;;6149832;23;20104;-58
2022/12/01 08:47:28;;;;;;;74.25;22.70;;;;;;;;;;6149331;23;20526;-58
2022/12/01 08:49:56;;;;;;;79.25;22.33;;;;;;;;;;6149157;23;20031;-58
2022/12/01 08:52:23;;;;;;;74.25;22.02;;;;;;;;;;6150122;23;20022;-57
2022/12/01 08:54:56;;;;;;;98.72;24.52;;;;;;;;;;6149766;23;20024;-58
2022/12/01 08:57:23;;;;;;;60.50;21.65;;;;;;;;;;6149941;23;20025;-49
2022/12/01 08:59:57;;;;;;;71.88;22.40;;;;;;;;;;6150172;23;20567;-56
2022/12/01 09:02:24;;;;;;;49.70;18.58;;;;;;;;;;6149501;23;20108;-61
2022/12/01 09:04:58;;;;;;;62.03;20.83;;;;;;;;;;6149679;23;20391;-61
2022/12/01 09:07:26;;;;;;;53.85;19.42;;;;;;;;;;6150198;23;20080;-61
2022/12/01 09:09:53;;;;;;;47.15;18.95;;;;;;;;;;6150146;23;20096;-61
2022/12/01 09:12:28;;;;;;;49.75;19.08;;;;;;;;;;6149827;23;20021;-61
2022/12/01 09:14:55;;;;;;;55.65;19.25;;;;;;;;;;6148324;23;20028;-61
2022/12/01 09:17:42;;;;;;;49.75;18.80;;;;;;;;;;6153186;23;20025;-62
2022/12/01 09:20:16;;;;;;;54.92;18.35;;;;;;;;;;6178224;23;20340;-55
2022/12/01 09:22:50;;;;;;;46.65;18.55;;;;;;;;;;6177577;23;20090;-48
2022/12/01 09:25:17;;;;;;;51.15;18.67;;;;;;;;;;6176656;23;20104;-50
2022/12/01 09:27:45;;;;;;;46.70;18.42;;;;;;;;;;6177684;23;20480;-54
2022/12/01 09:30:19;;;;;;;48.30;17.73;;;;;;;;;;6177045;23;20025;-54
2022/12/01 09:32:46;;;;;;;43.53;17.48;;;;;;;;;;6177641;23;20412;-51
2022/12/01 09:35:20;;;;;;;48.38;17.38;;;;;;;;;;6177665;23;20129;-58
2022/12/01 09:37:49;;;;;;;41.30;17.05;;;;;;;;;;6176790;23;20056;-61
2022/12/01 09:40:27;;;;;;;42.50;17.38;;;;;;;;;;6177936;23;20021;-62
2022/12/01 09:42:54;;;;;;;40.92;17.08;;;;;;;;;;6179287;23;20116;-64
2022/12/01 09:45:26;;;;;;;32.92;15.98;;;;;;;;;;6178054;23;20100;-65
2022/12/01 09:48:02;;;;;;;33.83;17.05;;;;;;;;;;6177431;23;20025;-64
2022/12/01 09:50:29;;;;;;;37.72;17.15;;;;;;;;;;6177723;23;20027;-64
2022/12/01 09:53:07;;;;;;;35.50;15.05;;;;;;;;;;6178273;23;20104;-63
2022/12/01 09:55:35;;;;;;;35.10;16.85;;;;;;;;;;6177913;23;20017;-64
2022/12/01 09:58:11;;;;;;;32.90;16.13;;;;;;;;;;6178257;23;20021;-61
2022/12/01 10:00:41;;;;;;;35.90;16.42;;;;;;;;;;6177732;23;20025;-61
2022/12/01 10:03:33;;;;;;;30.95;14.88;;;;;;;;;;6178414;23;20025;-61
2022/12/01 10:06:07;;;;;;;28.00;14.45;;;;;;;;;;6177443;23;20017;-62
2022/12/01 10:09:04;;;;;;;28.45;14.90;;;;;;;;;;6178057;23;20028;-61
2022/12/01 10:11:34;;;;;;;30.65;14.82;;;;;;;;;;6176836;23;20045;-61
2022/12/01 10:14:12;;;;;;;26.33;13.73;;;;;;;;;;6178226;23;20021;-64
2022/12/01 10:16:53;;;;;;;26.65;15.48;;;;;;;;;;6177918;23;20029;-52
2022/12/01 10:19:48;;;;;;;26.77;14.00;;;;;;;;;;5830956;23;8166227;-50
2022/12/01 10:22:41;;;;;;;21.77;11.90;;;;;;;;;;6179335;23;20244;-55
2022/12/01 10:25:22;;;;;;;23.30;12.07;;;;;;;;;;6177238;23;20354;-48
2022/12/01 10:28:05;;;;;;;20.55;10.88;;;;;;;;;;6178860;23;20028;-49
2022/12/01 10:30:51;;;;;;;19.55;11.80;;;;;;;;;;6178006;23;20099;-49
2022/12/01 10:33:25;;;;;;;23.33;11.90;;;;;;;;;;6177746;23;20029;-59
2022/12/01 10:35:53;;;;;;;21.20;11.50;;;;;;;;;;6178638;23;20715;-49
2022/12/01 10:38:28;;;;;;;16.92;10.43;;;;;;;;;;6179475;23;20027;-50
2022/12/01 10:40:58;;;;;;;18.40;10.48;;;;;;;;;;6176681;23;20017;-48
2022/12/01 10:43:36;;;;;;;20.58;11.05;;;;;;;;;;6176682;23;20036;-51
2022/12/01 10:46:10;;;;;;;17.08;10.57;;;;;;;;;;6177696;23;20027;-50
2022/12/01 10:48:52;;;;;;;20.42;11.70;;;;;;;;;;6179481;23;20429;-50
2022/12/01 10:51:21;;;;;;;17.80;10.82;;;;;;;;;;6178436;23;20031;-62
2022/12/01 10:53:59;;;;;;;18.08;10.40;;;;;;;;;;6178359;23;20107;-57
2022/12/01 10:56:27;;;;;;;18.73;10.60;;;;;;;;;;6180553;23;20107;-59
2022/12/01 10:58:56;;;;;;;20.67;11.00;;;;;;;;;;6180605;23;20025;-59
2022/12/01 11:01:34;;;;;;;16.02;9.27;;;;;;;;;;6178905;23;20100;-59
2022/12/01 11:04:01;;;;;;;17.38;9.82;;;;;;;;;;6181426;23;20029;-59
2022/12/01 11:06:30;;;;;;;16.85;9.25;;;;;;;;;;6180595;23;20072;-59
2022/12/01 11:09:06;;;;;;;16.73;9.02;;;;;;;;;;6180182;23;20033;-59
2022/12/01 11:11:39;;;;;;;14.52;9.27;;;;;;;;;;6179339;23;20036;-60
2022/12/01 11:14:23;;;;;;;13.05;9.13;;;;;;;;;;6181345;23;20025;-62
2022/12/01 11:17:13;;;;;;;15.73;8.63;;;;;;;;;;6179496;23;20032;-61
2022/12/01 11:19:54;;;;;;;12.88;7.43;;;;;;;;;;6179449;23;20415;-61
2022/12/01 11:22:23;;;;;;;12.57;7.90;;;;;;;;;;6181683;23;20028;-61
2022/12/01 11:24:58;;;;;;;14.50;8.95;;;;;;;;;;6180084;23;20021;-61
2022/12/01 11:27:35;;;;;;;15.65;8.85;;;;;;;;;;6180783;23;20052;-62
2022/12/01 11:30:25;;;;;;;12.88;7.43;;;;;;;;;;6179691;23;20032;-59
2022/12/01 11:33:02;;;;;;;15.30;8.02;;;;;;;;;;6180831;23;20023;-50
2022/12/01 11:35:31;;;;;;;16.98;8.98;;;;;;;;;;6179791;23;20511;-52
2022/12/01 11:38:06;;;;;;;14.35;8.40;;;;;;;;;;6179555;23;20027;-48
2022/12/01 11:40:54;;;;;;;11.43;7.97;;;;;;;;;;6180162;23;20029;-52
2022/12/01 11:43:30;;;;;;;14.45;8.85;;;;;;;;;;6180912;23;20029;-53
2022/12/01 11:45:59;;;;;;;14.98;10.13;;;;;;;;;;6178858;23;20060;-51
2022/12/01 11:48:28;;;;;;;16.00;10.05;;;;;;;;;;6180546;23;20025;-61
2022/12/01 11:51:04;;;;;;;16.70;9.27;;;;;;;;;;6179957;23;20027;-59
2022/12/01 11:53:40;;;;;;;13.90;8.45;;;;;;;;;;6179678;23;20104;-62
2022/12/01 11:56:14;;;;;;;14.30;9.23;;;;;;;;;;6154090;23;20021;-62
2022/12/01 11:58:49;;;;;;;13.70;9.00;;;;;;;;;;6180211;23;20031;-62
2022/12/01 12:01:35;;;;;;;18.00;10.32;;;;;;;;;;6179134;23;20057;-62
2022/12/01 12:04:33;;;;;;;16.17;9.50;;;;;;;;;;6180851;23;20023;-61
2022/12/01 12:07:19;;;;;;;17.75;9.77;;;;;;;;;;6179870;23;20023;-60
2022/12/01 12:10:01;;;;;;;16.98;8.98;;;;;;;;;;6180748;23;20025;-54
2022/12/01 12:12:47;;;;;;;12.75;7.95;;;;;;;;;;6180644;23;20017;-61
2022/12/01 12:15:21;;;;;;;20.02;9.25;;;;;;;;;;6180365;23;20538;-62
2022/12/01 12:18:00;;;;;;;15.23;9.15;;;;;;;;;;6177720;23;20028;-61
2022/12/01 12:20:47;;;;;;;14.20;8.82;;;;;;;;;;6180054;23;20029;-62
2022/12/01 12:23:15;;;;;;;18.17;9.20;;;;;;;;;;6180235;23;20032;-61
2022/12/01 12:26:11;;;;;;;14.57;8.98;;;;;;;;;;6179600;23;20100;-62
2022/12/01 12:28:50;;;;;;;17.40;8.00;;;;;;;;;;6180387;23;20103;-64
2022/12/01 12:31:27;;;;;;;20.65;9.32;;;;;;;;;;6179649;23;20344;-61
2022/12/01 12:33:54;;;;;;;14.18;8.55;;;;;;;;;;6178930;23;20025;-61
2022/12/01 12:36:40;;;;;;;13.55;8.82;;;;;;;;;;6179759;23;20437;-62
2022/12/01 12:39:26;;;;;;;14.32;8.55;;;;;;;;;;6180222;23;20025;-61
2022/12/01 12:42:02;;;;;;;14.13;8.50;;;;;;;;;;6180744;23;20456;-61
2022/12/01 12:44:44;;;;;;;15.50;8.65;;;;;;;;;;6179583;23;20499;-61
2022/12/01 12:47:36;;;;;;;14.60;9.07;;;;;;;;;;6180178;23;20401;-61
2022/12/01 12:50:15;;;;;;;14.65;7.65;;;;;;;;;;6178383;23;20028;-56
2022/12/01 12:52:51;;;;;;;15.18;9.10;;;;;;;;;;6155112;23;20024;-54
2022/12/01 12:55:21;;;;;;;15.00;9.00;;;;;;;;;;6179564;23;20462;-56
2022/12/01 12:58:05;;;;;;;14.70;8.98;;;;;;;;;;6180065;23;20017;-60
2022/12/01 13:00:40;;;;;;;14.60;9.48;;;;;;;;;;6177317;23;20021;-58
2022/12/01 13:03:19;;;;;;;14.18;8.85;;;;;;;;;;6180091;23;20028;-58
2022/12/01 13:05:48;;;;;;;14.55;8.40;;;;;;;;;;6178026;23;20369;-61
2022/12/01 13:08:21;;;;;;;17.20;9.30;;;;;;;;;;6179577;23;20104;-59
2022/12/01 13:10:51;;;;;;;14.02;9.38;;;;;;;;;;6178827;23;20360;-59
2022/12/01 13:13:45;;;;;;;14.43;9.13;;;;;;;;;;6178624;23;20407;-59
2022/12/01 13:16:15;;;;;;;15.30;8.75;;;;;;;;;;6178521;23;20021;-59
2022/12/01 13:19:10;;;;;;;13.30;8.20;;;;;;;;;;6177907;23;20053;-59
2022/12/01 13:21:46;;;;;;;13.68;8.02;;;;;;;;;;6178531;23;20539;-59
2022/12/01 13:24:20;;;;;;;12.95;8.40;;;;;;;;;;6179130;23;20052;-46
2022/12/01 13:26:52;;;;;;;13.38;8.43;;;;;;;;;;6178898;23;20099;-62
2022/12/01 13:29:26;;;;;;;13.50;8.73;;;;;;;;;;6178494;23;20100;-61
2022/12/01 13:31:54;;;;;;;11.43;7.28;;;;;;;;;;6180226;23;20024;-61
2022/12/01 13:34:29;;;;;;;13.52;8.40;;;;;;;;;;6180040;23;20021;-61
2022/12/01 13:37:03;;;;;;;15.60;8.15;;;;;;;;;;6178582;23;20096;-62
2022/12/01 13:39:35;;;;;;;15.93;8.45;;;;;;;;;;6178552;23;20025;-61
2022/12/01 13:42:06;;;;;;;14.13;8.15;;;;;;;;;;6178604;23;20029;-61
2022/12/01 13:44:44;;;;;;;15.43;8.25;;;;;;;;;;6179431;23;20550;-64
2022/12/01 13:47:11;;;;;;;12.80;7.30;;;;;;;;;;6178975;23;20379;-64
2022/12/01 13:49:43;;;;;;;13.07;8.20;;;;;;;;;;6178658;23;20348;-64
2022/12/01 13:52:17;;;;;;;;;;;;;;;;;;6180179;23;20081;-65
2022/12/01 13:55:04;;;;;;;14.35;7.88;;;;;;;;;;6179709;23;20330;-64
2022/12/01 13:57:39;;;;;;;12.27;8.13;;;;;;;;;;6164250;23;20489;-64
2022/12/01 14:00:07;;;;;;;13.07;8.38;;;;;;;;;;6179581;23;20120;-64
2022/12/01 14:02:35;;;;;;;14.40;8.35;;;;;;;;;;6177795;23;20410;-64
2022/12/01 14:05:34;;;;;;;14.00;8.63;;;;;;;;;;6179872;23;20406;-52
2022/12/01 14:08:12;;;;;;;15.48;8.68;;;;;;;;;;6178638;23;20031;-53
2022/12/01 14:10:54;;;;;;;16.52;8.68;;;;;;;;;;6177105;23;20332;-50
2022/12/01 14:13:22;;;;;;;14.40;9.20;;;;;;;;;;6178876;23;20092;-55
2022/12/01 14:15:59;;;;;;;18.58;10.85;;;;;;;;;;6176929;23;20027;-52
2022/12/01 14:18:35;;;;;;;14.20;9.18;;;;;;;;;;6178702;23;20025;-52
2022/12/01 14:21:09;;;;;;;17.63;9.60;;;;;;;;;;6178430;23;20094;-56
2022/12/01 14:23:40;;;;;;;18.55;10.43;;;;;;;;;;6177938;23;20614;-53
2022/12/01 14:26:13;;;;;;;19.92;10.57;;;;;;;;;;6176641;23;20096;-45
2022/12/01 14:28:59;;;;;;;19.65;10.70;;;;;;;;;;6180568;23;20032;-51
2022/12/01 14:31:32;;;;;;;18.02;10.27;;;;;;;;;;6179634;23;20096;-47
2022/12/01 14:34:00;;;;;;;20.45;11.07;;;;;;;;;;6180157;23;20079;-49
2022/12/01 14:36:41;;;;;;;18.40;10.13;;;;;;;;;;6180066;23;20021;-48
2022/12/01 14:39:18;;;;;;;18.90;11.05;;;;;;;;;;6180782;23;20021;-48
2022/12/01 14:41:54;;;;;;;18.50;10.88;;;;;;;;;;6180506;23;20557;-61
2022/12/01 14:44:30;;;;;;;18.65;11.13;;;;;;;;;;6180700;23;20033;-53
2022/12/01 14:47:08;;;;;;;18.40;10.50;;;;;;;;;;6179951;23;20371;-51
2022/12/01 14:49:50;;;;;;;17.95;10.20;;;;;;;;;;6180065;23;20068;-53
2022/12/01 14:52:24;;;;;;;;;;;;;;;;;;6181081;23;20028;-47
2022/12/01 14:54:53;;;;;;;16.92;10.27;;;;;;;;;;6177998;23;19926;-53
2022/12/01 14:57:22;;;;;;;19.40;10.80;;;;;;;;;;6178119;23;20021;-49
2022/12/01 15:00:03;;;;;;;19.98;10.70;;;;;;;;;;6179230;23;20609;-46
2022/12/01 15:02:30;;;;;;;20.10;10.82;;;;;;;;;;6178124;23;20359;-58